createdAt,value
2019-02-09T00:02:11.315Z,0.80
2019-02-09T00:04:41.883Z,0.80
2019-02-09T00:07:12.451Z,0.80
2019-02-09T00:09:43.241Z,0.80
2019-02-09T00:12:13.937Z,0.80
2019-02-09T00:14:44.742Z,0.80
2019-02-09T00:17:15.698Z,0.80
2019-02-09T00:19:46.467Z,0.70
2019-02-09T00:22:17.305Z,0.70
2019-02-09T00:24:48.588Z,0.60
2019-02-09T00:27:19.253Z,0.60
2019-02-09T00:29:50.045Z,0.60
2019-02-09T00:32:20.561Z,0.60
2019-02-09T00:34:51.332Z,0.70
2019-02-09T00:37:21.860Z,0.70
2019-02-09T00:39:52.376Z,0.80
2019-02-09T00:42:22.946Z,0.80
2019-02-09T00:44:53.440Z,0.90
2019-02-09T00:47:23.946Z,1.00
2019-02-09T00:49:54.610Z,1.10
2019-02-09T00:52:25.407Z,1.10
2019-02-09T00:54:55.924Z,1.10
2019-02-09T00:57:26.435Z,1.00
2019-02-09T00:59:56.984Z,0.90
2019-02-09T01:02:27.519Z,0.80
2019-02-09T01:04:58.054Z,0.80
2019-02-09T01:07:28.567Z,0.80
2019-02-09T01:09:59.612Z,0.90
2019-02-09T01:12:30.363Z,1.00
2019-02-09T01:15:00.923Z,1.00
2019-02-09T01:17:32.700Z,1.00
2019-02-09T01:20:03.522Z,1.10
2019-02-09T01:22:34.486Z,1.20
2019-02-09T01:25:06.021Z,1.30
2019-02-09T01:27:36.668Z,1.40
2019-02-09T01:30:11.728Z,1.50
2019-02-09T01:32:42.774Z,1.60
2019-02-09T01:35:14.706Z,1.70
2019-02-09T01:37:45.894Z,1.70
2019-02-09T01:40:20.047Z,1.70
2019-02-09T01:42:50.720Z,1.70
2019-02-09T01:45:24.547Z,2.00
2019-02-09T01:47:55.528Z,1.90
2019-02-09T01:50:27.508Z,2.00
2019-02-09T01:52:58.036Z,2.00
2019-02-09T01:55:29.249Z,2.00
2019-02-09T01:58:01.262Z,1.90
2019-02-09T02:00:34.760Z,2.00
2019-02-09T02:03:05.583Z,2.10
2019-02-09T02:05:36.780Z,2.20
2019-02-09T02:08:07.816Z,2.30
2019-02-09T02:10:39.670Z,2.50
2019-02-09T02:13:11.649Z,2.40
2019-02-09T02:15:43.144Z,2.30
2019-02-09T02:18:13.745Z,2.40
2019-02-09T02:20:44.517Z,2.30
2019-02-09T02:23:15.041Z,2.30
2019-02-09T02:25:45.869Z,2.50
2019-02-09T02:28:16.519Z,2.50
2019-02-09T02:30:47.280Z,2.70
2019-02-09T02:33:17.774Z,2.70
2019-02-09T02:35:48.735Z,2.80
2019-02-09T02:38:19.508Z,3.00
2019-02-09T02:40:50.104Z,3.00
2019-02-09T02:43:20.739Z,3.10
2019-02-09T02:45:51.359Z,3.00
2019-02-09T02:48:21.848Z,3.00
2019-02-09T02:50:52.548Z,3.10
2019-02-09T02:53:23.049Z,3.20
2019-02-09T02:55:53.574Z,3.10
2019-02-09T02:58:24.137Z,3.00
2019-02-09T03:00:55.241Z,2.90
2019-02-09T03:03:25.748Z,2.90
2019-02-09T03:05:56.539Z,2.80
2019-02-09T03:08:27.035Z,2.80
2019-02-09T03:10:57.540Z,2.80
2019-02-09T03:13:28.019Z,2.80
2019-02-09T03:15:58.827Z,2.80
2019-02-09T03:18:29.584Z,2.80
2019-02-09T03:21:00.087Z,2.90
2019-02-09T03:23:30.645Z,2.90
2019-02-09T03:26:01.137Z,2.90
2019-02-09T03:28:32.025Z,2.80
2019-02-09T03:31:02.593Z,2.90
2019-02-09T03:33:33.145Z,2.90
2019-02-09T03:36:03.677Z,3.00
2019-02-09T03:38:34.470Z,3.10
2019-02-09T03:41:05.017Z,3.00
2019-02-09T03:43:35.779Z,3.00
2019-02-09T03:46:06.922Z,3.10
2019-02-09T03:48:37.672Z,3.10
2019-02-09T03:51:08.233Z,3.20
2019-02-09T03:53:39.014Z,3.30
2019-02-09T03:56:09.712Z,3.40
2019-02-09T03:58:40.912Z,3.60
2019-02-09T04:01:11.660Z,3.60
2019-02-09T04:03:42.818Z,3.60
2019-02-09T04:06:13.333Z,3.60
2019-02-09T04:08:44.046Z,3.60
2019-02-09T04:11:14.706Z,3.60
2019-02-09T04:13:45.192Z,3.50
2019-02-09T04:16:15.763Z,3.60
2019-02-09T04:18:46.265Z,3.50
2019-02-09T04:21:16.912Z,3.50
2019-02-09T04:23:47.707Z,3.50
2019-02-09T04:26:18.240Z,3.50
2019-02-09T04:28:48.990Z,3.50
2019-02-09T04:31:19.488Z,3.50
2019-02-09T04:33:50.087Z,3.50
2019-02-09T04:36:20.762Z,3.50
2019-02-09T04:38:51.255Z,3.60
2019-02-09T04:41:21.974Z,3.60
2019-02-09T04:43:52.743Z,3.60
2019-02-09T04:46:23.245Z,3.60
2019-02-09T04:48:53.766Z,3.60
2019-02-09T04:51:24.277Z,3.60
2019-02-09T04:53:54.994Z,3.60
2019-02-09T04:56:25.845Z,3.60
2019-02-09T04:58:56.337Z,3.70
2019-02-09T05:01:26.832Z,3.80
2019-02-09T05:03:57.344Z,3.90
2019-02-09T05:06:28.096Z,3.80
2019-02-09T05:08:58.970Z,3.80
2019-02-09T05:11:29.738Z,3.90
2019-02-09T05:14:00.294Z,3.90
2019-02-09T05:16:30.847Z,3.90
2019-02-09T05:19:01.366Z,3.90
2019-02-09T05:21:33.137Z,3.90
2019-02-09T05:24:03.900Z,4.00
2019-02-09T05:26:34.939Z,4.00
2019-02-09T05:29:05.532Z,4.20
2019-02-09T05:31:36.314Z,4.10
2019-02-09T05:34:06.988Z,4.10
2019-02-09T05:36:37.494Z,4.20
2019-02-09T05:39:09.600Z,4.10
2019-02-09T05:41:40.369Z,4.20
2019-02-09T05:44:10.910Z,4.50
2019-02-09T05:46:41.400Z,4.40
2019-02-09T05:49:12.023Z,4.50
2019-02-09T05:51:42.866Z,4.50
2019-02-09T05:54:13.390Z,4.50
2019-02-09T05:56:44.179Z,4.30
2019-02-09T05:59:14.895Z,4.30
2019-02-09T06:01:45.682Z,4.10
2019-02-09T06:04:16.171Z,4.10
2019-02-09T06:06:46.995Z,4.20
2019-02-09T06:09:17.523Z,4.40
2019-02-09T06:11:48.279Z,4.50
2019-02-09T06:14:18.960Z,4.50
2019-02-09T06:16:49.456Z,4.30
2019-02-09T06:19:20.055Z,4.40
2019-02-09T06:21:50.594Z,4.40
2019-02-09T06:24:21.111Z,4.50
2019-02-09T06:26:51.906Z,4.60
2019-02-09T06:29:22.425Z,4.60
2019-02-09T06:31:53.121Z,4.60
2019-02-09T06:34:24.065Z,4.60
2019-02-09T06:36:54.827Z,4.70
2019-02-09T06:39:25.392Z,4.60
2019-02-09T06:41:55.938Z,4.60
2019-02-09T06:44:26.411Z,4.50
2019-02-09T06:46:57.231Z,4.40
2019-02-09T06:49:28.002Z,4.40
2019-02-09T06:51:58.557Z,4.40
2019-02-09T06:54:29.116Z,4.50
2019-02-09T06:56:59.912Z,4.50
2019-02-09T06:59:30.416Z,4.60
2019-02-09T07:02:01.223Z,4.70
2019-02-09T07:04:33.131Z,4.70
2019-02-09T07:07:04.132Z,4.80
2019-02-09T07:09:35.202Z,4.80
2019-02-09T07:12:06.346Z,4.80
2019-02-09T07:14:37.249Z,4.70
2019-02-09T07:17:07.752Z,4.80
2019-02-09T07:19:38.412Z,4.80
2019-02-09T07:22:09.110Z,4.80
2019-02-09T07:24:39.679Z,4.90
2019-02-09T07:27:10.467Z,4.80
2019-02-09T07:29:41.373Z,4.80
2019-02-09T07:32:12.288Z,4.80
2019-02-09T07:34:43.055Z,4.70
2019-02-09T07:37:13.560Z,4.70
2019-02-09T07:39:44.364Z,4.70
2019-02-09T07:42:15.108Z,4.70
2019-02-09T07:44:45.881Z,4.70
2019-02-09T07:47:16.440Z,4.70
2019-02-09T07:49:47.330Z,4.70
2019-02-09T07:52:18.170Z,5.00
2019-02-09T07:54:49.318Z,5.20
2019-02-09T07:57:20.193Z,5.40
2019-02-09T07:59:50.719Z,5.60
2019-02-09T08:02:21.221Z,5.60
2019-02-09T08:04:51.761Z,5.50
2019-02-09T08:07:22.297Z,5.50
2019-02-09T08:09:53.143Z,5.50
2019-02-09T08:12:23.668Z,5.50
2019-02-09T08:14:54.320Z,5.50
2019-02-09T08:17:25.109Z,5.60
2019-02-09T08:19:55.648Z,5.60
2019-02-09T08:22:26.206Z,5.60
2019-02-09T08:24:56.725Z,5.70
2019-02-09T08:27:27.391Z,5.80
2019-02-09T08:29:57.898Z,5.90
2019-02-09T08:32:28.458Z,6.00
2019-02-09T08:34:59.271Z,6.00
2019-02-09T08:37:29.819Z,6.00
2019-02-09T08:40:00.352Z,6.00
2019-02-09T08:42:30.898Z,6.00
2019-02-09T08:45:01.451Z,6.00
2019-02-09T08:47:33.493Z,5.90
2019-02-09T08:50:04.757Z,6.00
2019-02-09T08:52:35.527Z,6.10
2019-02-09T08:55:06.848Z,6.20
2019-02-09T08:57:37.604Z,6.20
2019-02-09T09:00:12.151Z,6.30
2019-02-09T09:02:42.963Z,6.50
2019-02-09T09:05:14.164Z,6.60
2019-02-09T09:07:44.986Z,6.80
2019-02-09T09:10:16.523Z,6.80
2019-02-09T09:12:47.328Z,6.80
2019-02-09T09:15:22.342Z,6.90
2019-02-09T09:17:52.989Z,6.90
2019-02-09T09:20:27.587Z,6.90
2019-02-09T09:22:58.454Z,6.90
2019-02-09T09:25:29.299Z,7.00
2019-02-09T09:27:59.956Z,7.20
2019-02-09T09:30:31.110Z,7.80
2019-02-09T09:33:01.719Z,8.30
2019-02-09T09:35:33.661Z,8.60
2019-02-09T09:38:05.028Z,8.80
2019-02-09T09:40:39.168Z,8.60
2019-02-09T09:43:10.095Z,8.40
2019-02-09T09:45:41.225Z,8.60
2019-02-09T09:48:14.597Z,9.00
2019-02-09T09:50:45.873Z,8.80
2019-02-09T09:53:16.533Z,8.80
2019-02-09T09:55:47.320Z,8.70
2019-02-09T09:58:17.911Z,8.70
2019-02-09T10:00:48.976Z,8.50
2019-02-09T10:03:19.624Z,9.00
2019-02-09T10:05:50.605Z,9.10
2019-02-09T10:08:21.420Z,9.40
2019-02-09T10:10:52.001Z,9.50
2019-02-09T10:13:22.553Z,9.60
2019-02-09T10:15:53.335Z,9.50
2019-02-09T10:18:24.379Z,9.30
2019-02-09T10:20:55.028Z,9.40
2019-02-09T10:23:25.677Z,9.80
2019-02-09T10:25:57.612Z,10.40
2019-02-09T10:28:28.174Z,10.60
2019-02-09T10:30:58.710Z,10.60
2019-02-09T10:33:29.566Z,10.80
2019-02-09T10:36:00.070Z,10.30
2019-02-09T10:38:30.641Z,10.20
2019-02-09T10:41:03.029Z,10.10
2019-02-09T10:43:34.811Z,10.30
2019-02-09T10:46:05.613Z,10.50
2019-02-09T10:48:36.734Z,10.40
2019-02-09T10:51:07.494Z,10.30
2019-02-09T10:53:38.076Z,10.30
2019-02-09T10:56:08.622Z,10.20
2019-02-09T10:58:39.836Z,10.20
2019-02-09T11:01:16.176Z,10.20
2019-02-09T11:03:47.089Z,10.20
2019-02-09T11:06:17.636Z,10.10
2019-02-09T11:08:48.511Z,10.00
2019-02-09T11:11:19.057Z,9.90
2019-02-09T11:13:49.731Z,9.60
2019-02-09T11:16:20.333Z,9.20
2019-02-09T11:18:50.874Z,9.00
2019-02-09T11:21:22.120Z,8.80
2019-02-09T11:23:52.928Z,8.70
2019-02-09T11:26:23.615Z,8.70
2019-02-09T11:28:54.443Z,8.80
2019-02-09T11:31:24.991Z,8.90
2019-02-09T11:33:55.664Z,9.00
2019-02-09T11:36:26.573Z,9.10
2019-02-09T11:38:57.445Z,9.20
2019-02-09T11:41:28.189Z,9.20
2019-02-09T11:43:58.814Z,9.10
2019-02-09T11:46:29.382Z,9.10
2019-02-09T11:48:59.995Z,9.00
2019-02-09T11:51:30.630Z,8.90
2019-02-09T11:54:01.360Z,8.90
2019-02-09T11:56:33.463Z,8.70
2019-02-09T11:59:03.971Z,8.60
2019-02-09T12:01:36.141Z,8.60
2019-02-09T12:04:07.287Z,8.80
2019-02-09T12:06:38.032Z,8.90
2019-02-09T12:09:10.837Z,9.00
2019-02-09T12:11:42.200Z,9.10
2019-02-09T12:14:12.773Z,9.20
2019-02-09T12:16:44.703Z,9.30
2019-02-09T12:19:15.255Z,9.30
2019-02-09T12:21:46.145Z,9.40
2019-02-09T12:24:16.738Z,9.50
2019-02-09T12:26:47.963Z,9.70
2019-02-09T12:29:18.751Z,9.80
2019-02-09T12:31:49.891Z,9.70
2019-02-09T12:34:20.820Z,9.60
2019-02-09T12:36:51.633Z,9.60
2019-02-09T12:39:22.223Z,9.50
2019-02-09T12:41:53.084Z,9.40
2019-02-09T12:44:23.660Z,9.60
2019-02-09T12:46:54.450Z,9.60
2019-02-09T12:49:25.027Z,9.70
2019-02-09T12:51:55.751Z,9.70
2019-02-09T12:54:26.336Z,9.90
2019-02-09T12:56:56.965Z,10.00
2019-02-09T12:59:27.679Z,10.10
2019-02-09T13:01:58.227Z,10.00
2019-02-09T13:04:28.916Z,10.00
2019-02-09T13:06:59.539Z,10.00
2019-02-09T13:09:30.044Z,9.90
2019-02-09T13:12:00.779Z,9.80
2019-02-09T13:14:31.586Z,9.80
2019-02-09T13:17:02.146Z,9.80
2019-02-09T13:19:34.002Z,10.00
2019-02-09T13:22:04.801Z,9.90
2019-02-09T13:24:35.343Z,9.90
2019-02-09T13:27:06.003Z,9.80
2019-02-09T13:29:36.833Z,9.60
2019-02-09T13:32:07.686Z,9.50
2019-02-09T13:34:38.234Z,9.30
2019-02-09T13:37:08.994Z,9.20
2019-02-09T13:39:39.784Z,9.20
2019-02-09T13:42:10.336Z,9.10
2019-02-09T13:44:41.236Z,9.30
2019-02-09T13:47:11.959Z,9.20
2019-02-09T13:49:43.158Z,9.30
2019-02-09T13:52:14.090Z,9.30
2019-02-09T13:54:45.004Z,9.30
2019-02-09T13:57:15.838Z,9.30
2019-02-09T13:59:48.319Z,9.40
2019-02-09T14:02:18.886Z,9.40
2019-02-09T14:04:50.108Z,9.40
2019-02-09T14:07:20.929Z,9.40
2019-02-09T14:09:51.837Z,9.30
2019-02-09T14:12:22.386Z,9.30
2019-02-09T14:14:53.495Z,9.30
2019-02-09T14:17:24.084Z,9.30
2019-02-09T14:19:54.827Z,9.30
2019-02-09T14:22:25.397Z,9.30
2019-02-09T14:24:56.056Z,9.30
2019-02-09T14:27:29.222Z,9.30
2019-02-09T14:29:59.877Z,9.40
2019-02-09T14:32:30.413Z,9.40
2019-02-09T14:35:00.999Z,9.30
2019-02-09T14:37:31.531Z,9.20
2019-02-09T14:40:02.100Z,9.30
2019-02-09T14:42:32.877Z,9.30
2019-02-09T14:45:03.406Z,9.30
2019-02-09T14:47:34.324Z,9.20
2019-02-09T14:50:11.074Z,9.20
2019-02-09T14:52:39.211Z,9.30
2019-02-09T14:55:13.169Z,9.30
2019-02-09T14:57:44.045Z,9.10
2019-02-09T15:00:19.557Z,9.10
2019-02-09T15:02:53.879Z,9.00
2019-02-09T15:05:22.564Z,8.90
2019-02-09T15:07:53.560Z,9.00
2019-02-09T15:10:24.334Z,9.00
2019-02-09T15:12:55.179Z,8.90
2019-02-09T15:15:39.364Z,8.90
2019-02-09T15:18:11.009Z,8.70
2019-02-09T15:20:46.429Z,8.70
2019-02-09T15:23:17.263Z,8.70
2019-02-09T15:25:48.424Z,8.60
2019-02-09T15:28:19.121Z,8.60
2019-02-09T15:30:50.303Z,8.60
2019-02-09T15:33:21.070Z,8.60
2019-02-09T15:35:51.833Z,8.50
2019-02-09T15:38:22.395Z,8.40
2019-02-09T15:40:53.240Z,8.40
2019-02-09T15:43:24.082Z,8.40
2019-02-09T15:45:54.666Z,8.30
2019-02-09T15:48:25.171Z,8.20
2019-02-09T15:50:56.110Z,8.10
2019-02-09T15:53:26.667Z,8.00
2019-02-09T15:55:57.268Z,7.90
2019-02-09T15:58:28.109Z,7.90
2019-02-09T16:00:58.708Z,7.80
2019-02-09T16:03:30.373Z,7.70
2019-02-09T16:06:01.183Z,7.70
2019-02-09T16:08:32.009Z,7.60
2019-02-09T16:11:02.594Z,7.40
2019-02-09T16:13:34.584Z,7.40
2019-02-09T16:16:06.720Z,7.20
2019-02-09T16:18:37.598Z,7.20
2019-02-09T16:21:08.218Z,7.10
2019-02-09T16:23:39.074Z,7.00
2019-02-09T16:26:09.601Z,6.90
2019-02-09T16:28:40.462Z,6.90
2019-02-09T16:31:11.235Z,6.80
2019-02-09T16:33:42.518Z,6.90
2019-02-09T16:36:13.129Z,6.80
2019-02-09T16:38:43.737Z,6.80
2019-02-09T16:41:14.398Z,6.80
2019-02-09T16:43:45.217Z,6.60
2019-02-09T16:46:15.884Z,6.60
2019-02-09T16:48:46.499Z,6.50
2019-02-09T16:51:17.242Z,6.50
2019-02-09T16:53:47.759Z,6.30
2019-02-09T16:56:18.311Z,6.40
2019-02-09T16:58:49.205Z,6.30
2019-02-09T17:01:22.989Z,6.20
2019-02-09T17:03:53.815Z,6.20
2019-02-09T17:06:24.545Z,6.20
2019-02-09T17:08:55.203Z,6.10
2019-02-09T17:11:25.814Z,6.00
2019-02-09T17:13:56.498Z,5.90
2019-02-09T17:16:27.308Z,5.90
2019-02-09T17:18:58.241Z,5.80
2019-02-09T17:21:28.850Z,5.70
2019-02-09T17:23:59.455Z,5.60
2019-02-09T17:26:30.103Z,5.60
2019-02-09T17:29:00.740Z,5.60
2019-02-09T17:31:31.296Z,5.50
2019-02-09T17:34:01.829Z,5.40
2019-02-09T17:36:32.430Z,5.50
2019-02-09T17:39:04.262Z,5.40
2019-02-09T17:41:34.862Z,5.30
2019-02-09T17:44:05.738Z,5.40
2019-02-09T17:46:36.602Z,5.40
2019-02-09T17:49:07.308Z,5.30
2019-02-09T17:51:38.479Z,5.40
2019-02-09T17:54:09.393Z,5.40
2019-02-09T17:56:39.978Z,5.40
2019-02-09T17:59:10.582Z,5.30
2019-02-09T18:01:41.435Z,5.40
2019-02-09T18:04:12.335Z,5.50
2019-02-09T18:06:42.993Z,5.60
2019-02-09T18:09:13.677Z,5.60
2019-02-09T18:11:44.603Z,5.60
2019-02-09T18:14:15.318Z,5.60
2019-02-09T18:16:45.881Z,5.60
2019-02-09T18:19:16.434Z,5.60
2019-02-09T18:21:48.330Z,5.70
2019-02-09T18:24:18.886Z,5.80
2019-02-09T18:26:49.750Z,5.80
2019-02-09T18:29:20.570Z,5.80
2019-02-09T18:31:51.391Z,5.80
2019-02-09T18:34:21.978Z,5.80
2019-02-09T18:36:52.700Z,5.70
2019-02-09T18:39:23.397Z,5.80
2019-02-09T18:41:53.989Z,5.80
2019-02-09T18:44:24.624Z,5.80
2019-02-09T18:46:55.504Z,5.80
2019-02-09T18:49:26.038Z,5.80
2019-02-09T18:51:56.754Z,5.80
2019-02-09T18:54:27.498Z,6.00
2019-02-09T18:56:58.092Z,6.00
2019-02-09T18:59:28.768Z,6.10
2019-02-09T19:01:59.699Z,6.00
2019-02-09T19:04:30.444Z,6.00
2019-02-09T19:07:01.136Z,6.10
2019-02-09T19:09:31.681Z,6.00
2019-02-09T19:12:02.497Z,5.80
2019-02-09T19:14:34.276Z,5.60
2019-02-09T19:17:04.953Z,5.80
2019-02-09T19:19:35.773Z,5.70
2019-02-09T19:22:06.814Z,5.60
2019-02-09T19:24:37.690Z,5.60
2019-02-09T19:27:08.614Z,5.40
2019-02-09T19:29:39.245Z,5.40
2019-02-09T19:32:09.841Z,5.30
2019-02-09T19:34:40.671Z,5.20
2019-02-09T19:37:11.530Z,5.30
2019-02-09T19:39:42.700Z,5.30
2019-02-09T19:42:13.557Z,5.30
2019-02-09T19:44:44.673Z,5.30
2019-02-09T19:47:15.292Z,5.30
2019-02-09T19:49:45.870Z,5.30
2019-02-09T19:52:16.652Z,5.30
2019-02-09T19:54:47.480Z,5.30
2019-02-09T19:57:18.120Z,5.20
2019-02-09T19:59:48.924Z,5.20
2019-02-09T20:02:19.688Z,5.20
2019-02-09T20:04:50.511Z,5.10
2019-02-09T20:07:21.125Z,5.10
2019-02-09T20:09:51.933Z,5.00
2019-02-09T20:12:22.653Z,5.00
2019-02-09T20:14:53.589Z,5.00
2019-02-09T20:17:24.179Z,4.90
2019-02-09T20:19:54.723Z,4.90
2019-02-09T20:22:25.594Z,4.90
2019-02-09T20:24:56.191Z,4.90
2019-02-09T20:27:26.816Z,4.90
2019-02-09T20:29:57.660Z,4.90
2019-02-09T20:32:28.289Z,4.90
2019-02-09T20:34:58.872Z,4.90
2019-02-09T20:37:29.637Z,4.90
2019-02-09T20:40:00.558Z,4.90
2019-02-09T20:42:31.159Z,4.80
2019-02-09T20:45:01.726Z,4.80
2019-02-09T20:47:32.426Z,4.70
2019-02-09T20:50:02.999Z,4.70
2019-02-09T20:52:35.122Z,4.60
2019-02-09T20:55:06.512Z,4.60
2019-02-09T20:57:37.550Z,4.50
2019-02-09T21:00:18.083Z,4.50
2019-02-09T21:02:44.946Z,4.30
2019-02-09T21:05:17.277Z,4.40
2019-02-09T21:07:48.073Z,4.30
2019-02-09T21:10:24.368Z,4.20
2019-02-09T21:12:54.948Z,4.10
2019-02-09T21:15:27.328Z,4.10
2019-02-09T21:17:58.031Z,4.20
2019-02-09T21:20:28.822Z,4.00
2019-02-09T21:22:59.383Z,4.00
2019-02-09T21:25:32.602Z,3.90
2019-02-09T21:28:03.276Z,3.90
2019-02-09T21:30:35.047Z,3.80
2019-02-09T21:33:06.540Z,3.80
2019-02-09T21:35:43.769Z,3.80
2019-02-09T21:38:09.553Z,3.80
2019-02-09T21:40:40.226Z,3.80
2019-02-09T21:43:11.082Z,3.80
2019-02-09T21:45:45.235Z,3.80
2019-02-09T21:48:14.352Z,3.70
2019-02-09T21:50:45.027Z,3.70
2019-02-09T21:53:15.934Z,3.70
2019-02-09T21:55:46.857Z,3.70
2019-02-09T21:58:18.453Z,3.70
2019-02-09T22:00:49.065Z,3.70
2019-02-09T22:03:19.758Z,3.70
2019-02-09T22:05:52.131Z,3.60
2019-02-09T22:08:22.937Z,3.60
2019-02-09T22:10:54.239Z,3.60
2019-02-09T22:13:24.834Z,3.60
2019-02-09T22:15:55.460Z,3.60
2019-02-09T22:18:26.067Z,3.60
2019-02-09T22:20:56.925Z,3.60
2019-02-09T22:23:27.514Z,3.60
2019-02-09T22:25:58.237Z,3.60
2019-02-09T22:28:28.894Z,3.60
2019-02-09T22:30:59.762Z,3.70
2019-02-09T22:33:30.551Z,3.70
2019-02-09T22:36:01.199Z,3.70
2019-02-09T22:38:32.139Z,3.70
2019-02-09T22:41:03.086Z,3.80
2019-02-09T22:43:35.110Z,3.90
2019-02-09T22:46:05.904Z,3.90
2019-02-09T22:48:37.052Z,3.90
2019-02-09T22:51:07.854Z,4.00
2019-02-09T22:53:38.679Z,4.00
2019-02-09T22:56:09.249Z,4.00
2019-02-09T22:58:40.074Z,4.00
2019-02-09T23:01:46.879Z,4.00
2019-02-09T23:05:28.049Z,4.10
2019-02-09T23:07:58.585Z,4.00
2019-02-09T23:10:29.117Z,4.00
2019-02-09T23:12:59.899Z,4.00
2019-02-09T23:15:30.481Z,4.00
2019-02-09T23:18:01.018Z,4.00
2019-02-09T23:20:31.611Z,4.00
2019-02-09T23:23:02.154Z,4.00
2019-02-09T23:25:33.008Z,4.00
2019-02-09T23:28:03.853Z,4.00
2019-02-09T23:30:35.250Z,4.00
2019-02-09T23:33:05.931Z,4.10
2019-02-09T23:35:36.725Z,4.10
2019-02-09T23:38:07.299Z,4.10
2019-02-09T23:40:38.130Z,4.00
2019-02-09T23:43:09.011Z,4.20
2019-02-09T23:45:39.630Z,4.20
2019-02-09T23:48:10.318Z,4.20
2019-02-09T23:50:41.201Z,4.20
2019-02-09T23:53:11.756Z,4.10
2019-02-09T23:55:42.402Z,4.10
2019-02-09T23:58:13.041Z,4.10
